createdAt,value
2018-10-06T00:00:51.848Z,11.25
2018-10-06T00:01:51.148Z,11.25
2018-10-06T00:03:51.367Z,11.25
2018-10-06T00:04:55.357Z,11.25
2018-10-06T00:05:44.510Z,11.25
2018-10-06T00:07:00.413Z,16.88
2018-10-06T00:07:51.588Z,16.88
2018-10-06T00:08:49.956Z,16.88
2018-10-06T00:09:54.401Z,16.88
2018-10-06T00:11:53.761Z,16.88
2018-10-06T00:12:53.048Z,16.88
2018-10-06T00:13:54.691Z,16.88
2018-10-06T00:16:49.694Z,16.88
2018-10-06T00:17:55.125Z,16.88
2018-10-06T00:19:53.294Z,16.88
2018-10-06T00:20:55.663Z,16.88
2018-10-06T00:21:53.414Z,16.88
2018-10-06T00:22:53.414Z,16.88
2018-10-06T00:23:52.496Z,16.88
2018-10-06T00:24:51.190Z,16.88
2018-10-06T00:25:55.370Z,16.88
2018-10-06T00:26:51.080Z,16.88
2018-10-06T00:27:52.522Z,16.88
2018-10-06T00:28:56.020Z,16.88
2018-10-06T00:29:53.154Z,16.88
2018-10-06T00:30:51.323Z,16.88
2018-10-06T00:31:54.642Z,16.88
2018-10-06T00:32:51.723Z,16.88
2018-10-06T00:33:54.084Z,16.88
2018-10-06T00:34:54.602Z,16.88
2018-10-06T00:35:56.920Z,16.88
2018-10-06T00:36:58.203Z,22.50
2018-10-06T00:37:52.481Z,22.50
2018-10-06T00:40:53.928Z,22.50
2018-10-06T00:41:49.265Z,22.50
2018-10-06T00:42:53.020Z,22.50
2018-10-06T00:43:54.974Z,22.50
2018-10-06T00:44:51.093Z,22.50
2018-10-06T00:45:58.049Z,22.50
2018-10-06T00:46:50.588Z,22.50
2018-10-06T00:47:54.793Z,22.50
2018-10-06T00:48:51.411Z,22.50
2018-10-06T00:49:55.929Z,22.50
2018-10-06T00:51:49.428Z,22.50
2018-10-06T00:52:58.090Z,22.50
2018-10-06T00:53:52.939Z,22.50
2018-10-06T00:54:54.218Z,22.50
2018-10-06T00:55:54.221Z,22.50
2018-10-06T00:56:56.474Z,22.50
2018-10-06T00:57:50.949Z,22.50
2018-10-06T00:58:54.330Z,22.50
2018-10-06T00:59:56.441Z,22.50
2018-10-06T01:00:53.344Z,28.13
2018-10-06T01:03:52.420Z,28.13
2018-10-06T01:04:54.983Z,28.13
2018-10-06T01:05:57.945Z,28.13
2018-10-06T01:06:52.431Z,28.13
2018-10-06T01:07:54.937Z,28.13
2018-10-06T01:09:54.812Z,28.13
2018-10-06T01:10:46.531Z,28.13
2018-10-06T01:11:50.438Z,28.13
2018-10-06T01:13:05.945Z,28.13
2018-10-06T01:14:53.615Z,28.13
2018-10-06T01:15:51.667Z,28.13
2018-10-06T01:17:48.942Z,28.13
2018-10-06T01:18:54.149Z,28.13
2018-10-06T01:19:57.967Z,28.13
2018-10-06T01:20:44.973Z,28.13
2018-10-06T01:21:54.445Z,28.13
2018-10-06T01:22:53.441Z,28.13
2018-10-06T01:23:57.953Z,28.13
2018-10-06T01:24:45.447Z,28.13
2018-10-06T01:25:55.828Z,28.13
2018-10-06T01:27:00.331Z,28.13
2018-10-06T01:27:55.927Z,28.13
2018-10-06T01:28:48.778Z,28.13
2018-10-06T01:29:58.207Z,28.13
2018-10-06T01:30:57.276Z,28.13
2018-10-06T01:31:54.724Z,28.13
2018-10-06T01:33:52.451Z,28.13
2018-10-06T01:35:50.962Z,28.13
2018-10-06T01:37:52.515Z,33.75
2018-10-06T01:38:55.281Z,33.75
2018-10-06T01:39:46.481Z,33.75
2018-10-06T01:40:57.449Z,33.75
2018-10-06T01:42:55.411Z,33.75
2018-10-06T01:43:52.863Z,33.75
2018-10-06T01:44:56.339Z,33.75
2018-10-06T01:45:51.429Z,33.75
2018-10-06T01:47:55.339Z,33.75
2018-10-06T01:48:56.367Z,33.75
2018-10-06T01:50:50.985Z,33.75
2018-10-06T01:51:51.966Z,33.75
2018-10-06T01:52:57.412Z,33.75
2018-10-06T01:53:54.971Z,33.75
2018-10-06T01:55:01.719Z,33.75
2018-10-06T01:55:56.102Z,33.75
2018-10-06T01:56:48.516Z,33.75
2018-10-06T01:57:54.775Z,33.75
2018-10-06T01:58:56.109Z,33.75
2018-10-06T01:59:58.186Z,33.75
2018-10-06T02:04:06.078Z,39.38
2018-10-06T02:05:55.338Z,33.75
2018-10-06T02:06:59.634Z,33.75
2018-10-06T02:08:02.925Z,33.75
2018-10-06T02:08:51.968Z,33.75
2018-10-06T02:09:51.975Z,33.75
2018-10-06T02:10:52.907Z,33.75
2018-10-06T02:11:56.971Z,33.75
2018-10-06T02:13:00.592Z,33.75
2018-10-06T02:13:50.262Z,33.75
2018-10-06T02:14:50.595Z,33.75
2018-10-06T02:15:56.969Z,33.75
2018-10-06T02:16:54.983Z,33.75
2018-10-06T02:17:57.254Z,33.75
2018-10-06T02:18:51.206Z,39.38
2018-10-06T02:19:50.970Z,39.38
2018-10-06T02:20:51.976Z,39.38
2018-10-06T02:21:55.832Z,39.38
2018-10-06T02:22:52.477Z,39.38
2018-10-06T02:23:55.649Z,39.38
2018-10-06T02:24:45.398Z,39.38
2018-10-06T02:25:54.226Z,39.38
2018-10-06T02:26:51.254Z,39.38
2018-10-06T02:29:03.968Z,39.38
2018-10-06T02:29:53.784Z,39.38
2018-10-06T02:30:57.020Z,39.38
2018-10-06T02:31:58.048Z,39.38
2018-10-06T02:32:57.537Z,39.38
2018-10-06T02:34:02.155Z,39.38
2018-10-06T02:34:55.084Z,39.38
2018-10-06T02:35:50.487Z,39.38
2018-10-06T02:37:57.474Z,39.38
2018-10-06T02:38:50.360Z,39.38
2018-10-06T02:39:57.785Z,39.38
2018-10-06T02:41:00.996Z,39.38
2018-10-06T02:41:53.697Z,39.38
2018-10-06T02:42:57.549Z,45.00
2018-10-06T02:43:57.484Z,45.00
2018-10-06T02:44:56.116Z,45.00
2018-10-06T02:45:53.410Z,45.00
2018-10-06T02:46:55.499Z,45.00
2018-10-06T02:47:59.262Z,45.00
2018-10-06T02:49:01.725Z,45.00
2018-10-06T02:49:57.937Z,45.00
2018-10-06T02:50:58.977Z,45.00
2018-10-06T02:52:55.500Z,45.00
2018-10-06T02:54:03.704Z,45.00
2018-10-06T02:55:04.004Z,45.00
2018-10-06T02:56:00.949Z,45.00
2018-10-06T02:58:04.229Z,45.00
2018-10-06T02:58:52.549Z,45.00
2018-10-06T02:59:55.498Z,45.00
2018-10-06T03:01:01.595Z,45.00
2018-10-06T03:01:58.171Z,45.00
2018-10-06T03:03:55.367Z,39.38
2018-10-06T03:05:02.020Z,39.38
2018-10-06T03:05:56.502Z,39.38
2018-10-06T03:07:03.557Z,39.38
2018-10-06T03:07:55.275Z,39.38
2018-10-06T03:09:03.984Z,39.38
2018-10-06T03:09:49.453Z,39.38
2018-10-06T03:10:53.561Z,39.38
2018-10-06T03:11:57.559Z,39.38
2018-10-06T03:12:55.011Z,39.38
2018-10-06T03:14:00.328Z,39.38
2018-10-06T03:15:04.514Z,39.38
2018-10-06T03:16:00.243Z,39.38
2018-10-06T03:17:52.259Z,39.38
2018-10-06T03:19:00.872Z,39.38
2018-10-06T03:19:56.015Z,39.38
2018-10-06T03:21:02.451Z,39.38
2018-10-06T03:21:59.356Z,39.38
2018-10-06T03:23:05.018Z,39.38
2018-10-06T03:23:57.925Z,39.38
2018-10-06T03:25:58.142Z,39.38
2018-10-06T03:27:01.317Z,39.38
2018-10-06T03:27:56.317Z,39.38
2018-10-06T03:28:56.727Z,39.38
2018-10-06T03:29:54.069Z,45.00
2018-10-06T03:30:54.383Z,45.00
2018-10-06T03:31:56.851Z,45.00
2018-10-06T03:33:02.108Z,45.00
2018-10-06T03:33:59.301Z,45.00
2018-10-06T03:35:01.578Z,45.00
2018-10-06T03:35:54.730Z,45.00
2018-10-06T03:36:59.637Z,45.00
2018-10-06T03:37:56.061Z,45.00
2018-10-06T03:38:54.449Z,45.00
2018-10-06T03:39:54.131Z,45.00
2018-10-06T03:41:02.016Z,45.00
2018-10-06T03:42:02.301Z,45.00
2018-10-06T03:43:02.334Z,45.00
2018-10-06T03:45:03.993Z,45.00
2018-10-06T03:46:02.864Z,45.00
2018-10-06T03:47:04.928Z,45.00
2018-10-06T03:47:57.838Z,45.00
2018-10-06T03:49:03.290Z,45.00
2018-10-06T03:50:54.025Z,45.00
2018-10-06T03:52:00.528Z,45.00
2018-10-06T03:53:53.583Z,45.00
2018-10-06T03:54:52.488Z,45.00
2018-10-06T03:56:55.557Z,45.00
2018-10-06T03:58:03.855Z,45.00
2018-10-06T03:59:04.486Z,45.00
2018-10-06T04:00:03.032Z,45.00
2018-10-06T04:01:00.033Z,45.00
2018-10-06T04:02:00.395Z,45.00
2018-10-06T04:02:56.109Z,45.00
2018-10-06T04:03:58.794Z,45.00
2018-10-06T04:04:57.238Z,45.00
2018-10-06T04:05:51.716Z,45.00
2018-10-06T04:07:01.261Z,45.00
2018-10-06T04:08:01.872Z,45.00
2018-10-06T04:08:57.159Z,45.00
2018-10-06T04:11:00.046Z,50.63
2018-10-06T04:11:55.852Z,50.63
2018-10-06T04:13:02.045Z,50.63
2018-10-06T04:14:55.540Z,50.63
2018-10-06T04:16:07.239Z,50.63
2018-10-06T04:17:02.119Z,50.63
2018-10-06T04:18:04.042Z,50.63
2018-10-06T04:18:57.005Z,50.63
2018-10-06T04:19:59.993Z,50.63
2018-10-06T04:21:02.245Z,50.63
2018-10-06T04:21:59.545Z,50.63
2018-10-06T04:23:07.581Z,50.63
2018-10-06T04:23:59.502Z,45.00
2018-10-06T04:25:00.122Z,45.00
2018-10-06T04:25:53.559Z,45.00
2018-10-06T04:27:00.643Z,45.00
2018-10-06T04:28:10.170Z,45.00
2018-10-06T04:29:07.557Z,45.00
2018-10-06T04:30:00.055Z,45.00
2018-10-06T04:30:58.405Z,45.00
2018-10-06T04:31:58.831Z,50.63
2018-10-06T04:32:57.554Z,50.63
2018-10-06T04:33:57.046Z,50.63
2018-10-06T04:35:05.505Z,50.63
2018-10-06T04:36:01.722Z,50.63
2018-10-06T04:37:04.077Z,50.63
2018-10-06T04:38:00.600Z,50.63
2018-10-06T04:38:50.995Z,50.63
2018-10-06T04:39:53.659Z,50.63
2018-10-06T04:41:02.877Z,50.63
2018-10-06T04:43:03.712Z,50.63
2018-10-06T04:43:56.055Z,50.63
2018-10-06T04:45:58.006Z,50.63
2018-10-06T04:47:06.294Z,50.63
2018-10-06T04:47:55.249Z,50.63
2018-10-06T04:50:03.443Z,56.25
2018-10-06T04:51:06.609Z,56.25
2018-10-06T04:51:53.068Z,56.25
2018-10-06T04:52:58.572Z,61.88
2018-10-06T04:53:48.224Z,61.88
2018-10-06T04:54:54.144Z,61.88
2018-10-06T04:56:01.011Z,56.25
2018-10-06T04:57:01.065Z,61.88
2018-10-06T04:58:03.898Z,61.88
2018-10-06T04:59:05.335Z,61.88
2018-10-06T05:00:49.682Z,61.88
2018-10-06T05:02:01.763Z,61.88
2018-10-06T05:02:57.570Z,61.88
2018-10-06T05:06:04.037Z,61.88
2018-10-06T05:06:57.579Z,61.88
2018-10-06T05:08:10.393Z,61.88
2018-10-06T05:08:52.844Z,61.88
2018-10-06T05:09:52.072Z,61.88
2018-10-06T05:14:03.392Z,56.25
2018-10-06T05:15:01.426Z,56.25
2018-10-06T05:15:56.526Z,56.25
2018-10-06T05:17:58.071Z,56.25
2018-10-06T05:18:57.898Z,61.88
2018-10-06T05:20:03.582Z,61.88
2018-10-06T05:22:07.620Z,67.50
2018-10-06T05:23:04.858Z,67.50
2018-10-06T05:23:56.154Z,67.50
2018-10-06T05:25:03.534Z,67.50
2018-10-06T05:25:58.316Z,67.50
2018-10-06T05:27:02.521Z,67.50
2018-10-06T05:27:57.717Z,67.50
2018-10-06T05:29:05.920Z,67.50
2018-10-06T05:30:00.923Z,67.50
2018-10-06T05:31:05.095Z,67.50
2018-10-06T05:32:08.495Z,67.50
2018-10-06T05:34:03.728Z,61.88
2018-10-06T05:34:55.813Z,61.88
2018-10-06T05:36:08.915Z,67.50
2018-10-06T05:37:04.014Z,67.50
2018-10-06T05:38:04.810Z,73.13
2018-10-06T05:39:07.810Z,73.13
2018-10-06T05:40:03.523Z,73.13
2018-10-06T05:41:02.086Z,67.50
2018-10-06T05:42:57.672Z,61.88
2018-10-06T05:44:06.520Z,61.88
2018-10-06T05:45:08.358Z,56.25
2018-10-06T05:45:58.601Z,56.25
2018-10-06T05:47:01.304Z,56.25
2018-10-06T05:47:59.097Z,56.25
2018-10-06T05:49:01.008Z,56.25
2018-10-06T05:50:03.265Z,56.25
2018-10-06T05:50:57.105Z,56.25
2018-10-06T05:51:56.433Z,56.25
2018-10-06T05:53:07.183Z,61.88
2018-10-06T05:54:06.065Z,61.88
2018-10-06T05:55:06.062Z,61.88
2018-10-06T05:56:08.940Z,61.88
2018-10-06T05:57:01.669Z,61.88
2018-10-06T05:57:58.391Z,67.50
2018-10-06T06:00:04.449Z,67.50
2018-10-06T06:00:56.589Z,67.50
2018-10-06T06:02:06.610Z,67.50
2018-10-06T06:05:01.712Z,67.50
2018-10-06T06:05:59.600Z,67.50
2018-10-06T06:07:02.453Z,67.50
2018-10-06T06:08:08.602Z,67.50
2018-10-06T06:09:04.201Z,73.13
2018-10-06T06:10:02.913Z,73.13
2018-10-06T06:11:09.836Z,73.13
2018-10-06T06:12:01.700Z,73.13
2018-10-06T06:13:07.090Z,73.13
2018-10-06T06:14:02.997Z,67.50
2018-10-06T06:15:02.178Z,67.50
2018-10-06T06:17:06.692Z,67.50
2018-10-06T06:19:02.304Z,67.50
2018-10-06T06:20:08.250Z,61.88
2018-10-06T06:21:01.115Z,61.88
2018-10-06T06:23:05.314Z,61.88
2018-10-06T06:23:54.684Z,56.25
2018-10-06T06:25:03.985Z,61.88
2018-10-06T06:26:03.687Z,56.25
2018-10-06T06:27:05.114Z,56.25
2018-10-06T06:28:08.715Z,56.25
2018-10-06T06:30:05.131Z,50.63
2018-10-06T06:32:06.589Z,50.63
2018-10-06T06:34:02.809Z,50.63
2018-10-06T06:36:07.125Z,50.63
2018-10-06T06:37:00.125Z,50.63
2018-10-06T06:38:18.676Z,50.63
2018-10-06T06:39:07.955Z,50.63
2018-10-06T06:40:11.134Z,56.25
2018-10-06T06:43:53.882Z,56.25
2018-10-06T06:45:06.561Z,56.25
2018-10-06T06:45:56.632Z,56.25
2018-10-06T06:47:03.155Z,56.25
2018-10-06T06:48:15.680Z,56.25
2018-10-06T06:49:03.140Z,56.25
2018-10-06T06:50:02.683Z,56.25
2018-10-06T06:50:54.603Z,56.25
2018-10-06T06:52:00.047Z,56.25
2018-10-06T06:53:06.508Z,56.25
2018-10-06T06:54:11.634Z,50.63
2018-10-06T06:54:57.980Z,50.63
2018-10-06T06:55:58.137Z,56.25
2018-10-06T06:57:04.789Z,56.25
2018-10-06T06:58:09.396Z,61.88
2018-10-06T07:02:01.243Z,61.88
2018-10-06T07:03:00.147Z,67.50
2018-10-06T07:06:07.809Z,67.50
2018-10-06T07:07:02.637Z,67.50
2018-10-06T07:08:09.345Z,67.50
2018-10-06T07:08:59.998Z,67.50
2018-10-06T07:10:04.550Z,61.88
2018-10-06T07:13:00.055Z,67.50
2018-10-06T07:14:01.449Z,67.50
2018-10-06T07:15:08.872Z,67.50
2018-10-06T07:16:00.656Z,67.50
2018-10-06T07:17:02.660Z,67.50
2018-10-06T07:18:01.416Z,61.88
2018-10-06T07:18:57.150Z,61.88
2018-10-06T07:20:03.647Z,61.88
2018-10-06T07:21:14.545Z,56.25
2018-10-06T07:23:15.517Z,56.25
2018-10-06T07:24:01.552Z,56.25
2018-10-06T07:24:59.153Z,56.25
2018-10-06T07:25:58.653Z,50.63
2018-10-06T07:27:11.654Z,50.63
2018-10-06T07:28:05.151Z,50.63
2018-10-06T07:29:05.567Z,50.63
2018-10-06T07:30:18.891Z,45.00
2018-10-06T07:31:00.066Z,45.00
2018-10-06T07:32:00.368Z,45.00
2018-10-06T07:32:58.837Z,45.00
2018-10-06T07:34:06.164Z,45.00
2018-10-06T07:35:07.547Z,45.00
2018-10-06T07:36:06.452Z,45.00
2018-10-06T07:36:59.885Z,45.00
2018-10-06T07:38:12.217Z,45.00
2018-10-06T07:39:04.169Z,50.63
2018-10-06T07:40:06.362Z,50.63
2018-10-06T07:41:04.108Z,50.63
2018-10-06T07:42:03.670Z,50.63
2018-10-06T07:44:10.669Z,56.25
2018-10-06T07:44:58.177Z,56.25
2018-10-06T07:46:09.666Z,56.25
2018-10-06T07:47:11.206Z,61.88
2018-10-06T07:48:10.675Z,61.88
2018-10-06T07:50:03.338Z,61.88
2018-10-06T07:51:11.542Z,61.88
2018-10-06T07:52:05.598Z,61.88
2018-10-06T07:52:55.598Z,61.88
2018-10-06T07:54:10.632Z,61.88
2018-10-06T07:55:07.673Z,61.88
2018-10-06T07:56:59.607Z,56.25
2018-10-06T07:58:06.354Z,56.25
2018-10-06T07:59:11.737Z,61.88
2018-10-06T08:00:01.464Z,67.50
2018-10-06T08:01:09.684Z,67.50
2018-10-06T08:03:09.251Z,67.50
2018-10-06T08:04:13.551Z,67.50
2018-10-06T08:06:59.090Z,67.50
2018-10-06T08:08:04.186Z,73.13
2018-10-06T08:09:09.680Z,73.13
2018-10-06T08:10:03.490Z,67.50
2018-10-06T08:11:08.892Z,67.50
2018-10-06T08:12:06.690Z,67.50
2018-10-06T08:13:03.488Z,73.13
2018-10-06T08:14:04.951Z,78.75
2018-10-06T08:16:08.919Z,146.25
2018-10-06T08:17:13.018Z,146.25
2018-10-06T08:18:06.783Z,123.75
2018-10-06T08:20:12.316Z,78.75
2018-10-06T08:22:03.195Z,84.38
2018-10-06T08:24:12.950Z,101.25
2018-10-06T08:25:18.385Z,73.13
2018-10-06T08:26:05.185Z,73.13
2018-10-06T08:28:13.700Z,67.50
2018-10-06T08:30:05.324Z,67.50
2018-10-06T08:31:04.319Z,67.50
2018-10-06T08:32:06.974Z,67.50
2018-10-06T08:33:17.100Z,67.50
2018-10-06T08:34:05.353Z,61.88
2018-10-06T08:37:08.317Z,61.88
2018-10-06T08:38:03.703Z,61.88
2018-10-06T08:39:10.378Z,56.25
2018-10-06T08:40:08.700Z,56.25
2018-10-06T08:43:08.208Z,95.63
2018-10-06T08:44:08.467Z,101.25
2018-10-06T08:45:01.511Z,78.75
2018-10-06T08:46:07.710Z,61.88
2018-10-06T08:47:11.958Z,61.88
2018-10-06T08:48:15.243Z,61.88
2018-10-06T08:49:04.499Z,61.88
2018-10-06T08:50:10.206Z,73.13
2018-10-06T08:52:00.821Z,67.50
2018-10-06T08:53:01.207Z,56.25
2018-10-06T08:54:11.073Z,56.25
2018-10-06T08:56:56.241Z,50.63
2018-10-06T08:58:15.216Z,50.63
2018-10-06T08:59:00.677Z,45.00
2018-10-06T09:00:07.208Z,45.00
2018-10-06T09:01:15.627Z,45.00
2018-10-06T09:02:18.907Z,50.63
2018-10-06T09:04:07.765Z,39.38
2018-10-06T09:05:03.671Z,39.38
2018-10-06T09:06:06.061Z,39.38
2018-10-06T09:08:12.216Z,39.38
2018-10-06T09:09:09.217Z,39.38
2018-10-06T09:10:15.227Z,39.38
2018-10-06T09:11:02.376Z,33.75
2018-10-06T09:12:05.663Z,33.75
2018-10-06T09:13:14.986Z,33.75
2018-10-06T09:14:05.170Z,33.75
2018-10-06T09:14:57.600Z,33.75
2018-10-06T09:16:01.720Z,33.75
2018-10-06T09:17:13.223Z,33.75
2018-10-06T09:18:14.222Z,33.75
2018-10-06T09:19:07.723Z,33.75
2018-10-06T09:20:11.125Z,33.75
2018-10-06T09:21:57.041Z,33.75
2018-10-06T09:23:14.225Z,33.75
2018-10-06T09:24:03.161Z,33.75
2018-10-06T09:26:03.863Z,28.13
2018-10-06T09:27:03.911Z,28.13
2018-10-06T09:28:02.568Z,28.13
2018-10-06T09:29:19.476Z,28.13
2018-10-06T09:30:12.743Z,28.13
2018-10-06T09:31:07.408Z,28.13
2018-10-06T09:33:14.374Z,22.50
2018-10-06T09:34:09.240Z,22.50
2018-10-06T09:35:11.733Z,22.50
2018-10-06T09:36:04.465Z,22.50
2018-10-06T09:37:00.233Z,22.50
2018-10-06T09:38:10.234Z,22.50
2018-10-06T09:39:06.235Z,22.50
2018-10-06T09:40:20.740Z,22.50
2018-10-06T09:41:14.019Z,22.50
2018-10-06T09:42:06.591Z,22.50
2018-10-06T09:43:14.537Z,22.50
2018-10-06T09:44:04.743Z,22.50
2018-10-06T09:45:13.829Z,16.88
2018-10-06T09:46:07.246Z,16.88
2018-10-06T09:47:03.813Z,16.88
2018-10-06T09:48:04.024Z,16.88
2018-10-06T09:49:17.554Z,16.88
2018-10-06T09:50:13.741Z,16.88
2018-10-06T09:51:16.013Z,16.88
2018-10-06T09:52:13.047Z,16.88
2018-10-06T09:53:10.186Z,11.25
2018-10-06T09:54:08.240Z,11.25
2018-10-06T09:55:08.677Z,11.25
2018-10-06T09:56:13.281Z,11.25
2018-10-06T09:58:12.363Z,11.25
2018-10-06T09:59:12.158Z,11.25
2018-10-06T10:01:08.297Z,11.25
2018-10-06T10:02:03.077Z,11.25
2018-10-06T10:03:05.595Z,11.25
2018-10-06T10:04:15.162Z,11.25
2018-10-06T10:05:08.415Z,5.63
2018-10-06T10:06:05.003Z,5.63
2018-10-06T10:08:10.296Z,5.63
2018-10-06T10:09:07.631Z,5.63
2018-10-06T10:10:07.183Z,5.63
2018-10-06T10:11:14.259Z,5.63
2018-10-06T10:12:14.893Z,5.63
2018-10-06T10:13:06.762Z,5.63
2018-10-06T10:14:02.779Z,5.63
2018-10-06T10:15:02.124Z,5.63
2018-10-06T10:16:16.977Z,5.63
2018-10-06T10:17:06.738Z,5.63
2018-10-06T10:18:22.008Z,5.63
2018-10-06T10:19:14.119Z,0.00
2018-10-06T10:20:14.440Z,0.00
2018-10-06T10:21:11.884Z,0.00
2018-10-06T10:23:01.371Z,0.00
2018-10-06T10:24:13.540Z,0.00
2018-10-06T10:25:15.389Z,0.00
2018-10-06T10:26:16.424Z,0.00
2018-10-06T10:27:21.236Z,0.00
2018-10-06T10:28:14.332Z,0.00
2018-10-06T10:29:17.665Z,0.00
2018-10-06T10:31:16.551Z,0.00
2018-10-06T10:32:10.809Z,0.00
2018-10-06T10:33:15.734Z,0.00
2018-10-06T10:35:12.577Z,0.00
2018-10-06T10:36:15.131Z,0.00
2018-10-06T10:37:13.302Z,0.00
2018-10-06T10:38:06.138Z,0.00
2018-10-06T10:39:16.117Z,0.00
2018-10-06T10:40:12.703Z,0.00
2018-10-06T10:41:11.681Z,0.00
2018-10-06T10:42:13.541Z,0.00
2018-10-06T10:44:14.901Z,0.00
2018-10-06T10:45:09.038Z,0.00
2018-10-06T10:46:15.097Z,0.00
2018-10-06T10:47:10.702Z,0.00
2018-10-06T10:49:14.095Z,0.00
2018-10-06T10:50:08.878Z,0.00
2018-10-06T10:51:12.763Z,0.00
2018-10-06T10:52:14.718Z,0.00
2018-10-06T10:53:13.808Z,0.00
2018-10-06T10:54:14.324Z,0.00
2018-10-06T10:55:13.191Z,0.00
2018-10-06T10:56:13.926Z,0.00
2018-10-06T10:58:14.345Z,0.00
2018-10-06T10:59:14.449Z,0.00
2018-10-06T11:00:15.825Z,0.00
2018-10-06T11:01:12.177Z,0.00
2018-10-06T11:02:14.569Z,0.00
2018-10-06T11:03:14.170Z,0.00
2018-10-06T11:04:14.271Z,0.00
2018-10-06T11:05:07.726Z,0.00
2018-10-06T11:06:14.901Z,0.00
2018-10-06T11:09:13.428Z,0.00
2018-10-06T11:11:07.063Z,0.00
2018-10-06T11:12:09.202Z,0.00
2018-10-06T11:13:19.751Z,0.00
2018-10-06T11:15:09.421Z,0.00
2018-10-06T11:16:10.761Z,0.00
2018-10-06T11:17:11.598Z,0.00
2018-10-06T11:18:17.524Z,0.00
2018-10-06T11:19:17.121Z,0.00
2018-10-06T11:20:09.032Z,0.00
2018-10-06T11:21:12.225Z,0.00
2018-10-06T11:22:13.553Z,0.00
2018-10-06T11:23:11.000Z,0.00
2018-10-06T11:25:12.746Z,0.00
2018-10-06T11:27:13.898Z,0.00
2018-10-06T11:29:05.006Z,0.00
2018-10-06T11:30:12.365Z,0.00
2018-10-06T11:31:11.309Z,0.00
2018-10-06T11:32:16.273Z,0.00
2018-10-06T11:33:12.899Z,0.00
2018-10-06T11:34:07.182Z,0.00
2018-10-06T11:35:15.886Z,0.00
2018-10-06T11:36:10.254Z,0.00
2018-10-06T11:37:14.419Z,0.00
2018-10-06T11:38:16.183Z,0.00
2018-10-06T11:39:14.682Z,0.00
2018-10-06T11:41:18.685Z,0.00
2018-10-06T11:42:16.939Z,0.00
2018-10-06T11:43:17.559Z,0.00
2018-10-06T11:44:16.649Z,0.00
2018-10-06T11:45:19.419Z,0.00
2018-10-06T11:48:07.655Z,0.00
2018-10-06T11:49:17.402Z,0.00
2018-10-06T11:50:14.072Z,0.00
2018-10-06T11:51:10.027Z,0.00
2018-10-06T11:52:13.218Z,0.00
2018-10-06T11:53:14.447Z,0.00
2018-10-06T11:55:06.363Z,0.00
2018-10-06T11:56:16.307Z,0.00
2018-10-06T11:57:15.495Z,0.00
2018-10-06T11:58:10.993Z,0.00
2018-10-06T11:59:14.481Z,0.00
2018-10-06T12:00:07.689Z,0.00
2018-10-06T12:01:12.966Z,0.00
2018-10-06T12:02:10.505Z,0.00
2018-10-06T12:03:12.872Z,0.00
2018-10-06T12:04:17.064Z,0.00
2018-10-06T12:05:12.672Z,0.00
2018-10-06T12:06:09.192Z,0.00
2018-10-06T12:07:14.944Z,0.00
2018-10-06T12:08:11.972Z,0.00
2018-10-06T12:09:14.641Z,0.00
2018-10-06T12:10:10.755Z,0.00
2018-10-06T12:11:10.006Z,0.00
2018-10-06T12:12:10.772Z,0.00
2018-10-06T12:13:17.428Z,0.00
2018-10-06T12:14:14.677Z,0.00
2018-10-06T12:15:13.455Z,0.00
2018-10-06T12:17:19.089Z,0.00
2018-10-06T12:18:15.619Z,0.00
2018-10-06T12:19:12.556Z,0.00
2018-10-06T12:20:11.639Z,0.00
2018-10-06T12:21:08.462Z,0.00
2018-10-06T12:22:08.748Z,0.00
2018-10-06T12:23:09.830Z,0.00
2018-10-06T12:25:11.570Z,0.00
2018-10-06T12:26:09.752Z,0.00
2018-10-06T12:27:15.255Z,0.00
2018-10-06T12:28:13.008Z,0.00
2018-10-06T12:30:11.451Z,0.00
2018-10-06T12:31:07.836Z,0.00
2018-10-06T12:32:09.758Z,0.00
2018-10-06T12:33:10.483Z,0.00
2018-10-06T12:34:11.711Z,0.00
2018-10-06T12:35:14.564Z,0.00
2018-10-06T12:36:15.928Z,0.00
2018-10-06T12:37:10.397Z,0.00
2018-10-06T12:38:10.206Z,0.00
2018-10-06T12:39:18.396Z,0.00
2018-10-06T12:40:10.824Z,0.00
2018-10-06T12:43:12.684Z,0.00
2018-10-06T12:44:15.352Z,0.00
2018-10-06T12:45:14.036Z,0.00
2018-10-06T12:46:14.233Z,0.00
2018-10-06T12:47:18.749Z,0.00
2018-10-06T12:50:16.417Z,0.00
2018-10-06T12:51:12.013Z,0.00
2018-10-06T12:53:12.128Z,0.00
2018-10-06T12:54:14.803Z,0.00
2018-10-06T12:55:12.145Z,0.00
2018-10-06T12:56:08.260Z,0.00
2018-10-06T12:57:10.830Z,0.00
2018-10-06T12:58:15.543Z,0.00
2018-10-06T13:00:13.968Z,0.00
2018-10-06T13:02:10.437Z,0.00
2018-10-06T13:03:20.282Z,0.00
2018-10-06T13:04:11.786Z,0.00
2018-10-06T13:05:10.457Z,0.00
2018-10-06T13:06:19.881Z,0.00
2018-10-06T13:07:11.592Z,0.00
2018-10-06T13:08:15.490Z,0.00
2018-10-06T13:10:13.351Z,0.00
2018-10-06T13:11:16.632Z,0.00
2018-10-06T13:12:15.728Z,0.00
2018-10-06T13:13:09.587Z,0.00
2018-10-06T13:14:17.980Z,0.00
2018-10-06T13:15:12.153Z,0.00
2018-10-06T13:16:13.999Z,0.00
2018-10-06T13:17:12.476Z,0.00
2018-10-06T13:18:14.935Z,0.00
2018-10-06T13:20:19.557Z,0.00
2018-10-06T13:21:13.822Z,0.00
2018-10-06T13:22:15.774Z,0.00
2018-10-06T13:23:11.993Z,0.00
2018-10-06T13:24:18.858Z,0.00
2018-10-06T13:25:14.465Z,0.00
2018-10-06T13:26:10.072Z,0.00
2018-10-06T13:27:13.755Z,0.00
2018-10-06T13:28:23.692Z,0.00
2018-10-06T13:30:17.468Z,0.00
2018-10-06T13:31:19.511Z,0.00
2018-10-06T13:32:13.066Z,0.00
2018-10-06T13:33:10.304Z,0.00
2018-10-06T13:34:16.765Z,0.00
2018-10-06T13:35:11.854Z,0.00
2018-10-06T13:36:16.053Z,0.00
2018-10-06T13:37:10.850Z,0.00
2018-10-06T13:38:18.636Z,0.00
2018-10-06T13:39:19.661Z,0.00
2018-10-06T13:40:08.503Z,0.00
2018-10-06T13:41:11.990Z,0.00
2018-10-06T13:42:12.503Z,0.00
2018-10-06T13:43:15.083Z,0.00
2018-10-06T13:44:16.009Z,0.00
2018-10-06T13:45:14.781Z,0.00
2018-10-06T13:46:13.351Z,0.00
2018-10-06T13:48:11.937Z,0.00
2018-10-06T13:49:13.990Z,0.00
2018-10-06T13:50:20.132Z,0.00
2018-10-06T13:51:16.260Z,0.00
2018-10-06T13:52:11.957Z,0.00
2018-10-06T13:53:15.126Z,0.00
2018-10-06T13:54:15.759Z,0.00
2018-10-06T13:55:14.017Z,0.00
2018-10-06T13:56:16.474Z,0.00
2018-10-06T13:57:16.081Z,0.00
2018-10-06T13:58:15.032Z,0.00
2018-10-06T13:59:14.752Z,0.00
2018-10-06T14:00:16.936Z,0.00
2018-10-06T14:01:13.642Z,0.00
2018-10-06T14:02:13.853Z,0.00
2018-10-06T14:03:18.269Z,0.00
2018-10-06T14:05:11.931Z,0.00
2018-10-06T14:06:15.422Z,0.00
2018-10-06T14:07:14.493Z,0.00
2018-10-06T14:08:16.344Z,0.00
2018-10-06T14:09:18.505Z,0.00
2018-10-06T14:11:12.265Z,0.00
2018-10-06T14:12:11.662Z,0.00
2018-10-06T14:13:17.505Z,0.00
2018-10-06T14:14:17.102Z,0.00
2018-10-06T14:15:15.359Z,0.00
2018-10-06T14:16:14.044Z,0.00
2018-10-06T14:17:16.701Z,0.00
2018-10-06T14:18:13.835Z,0.00
2018-10-06T14:19:17.424Z,0.00
2018-10-06T14:20:18.158Z,0.00
2018-10-06T14:21:19.796Z,0.00
2018-10-06T14:22:10.389Z,0.00
2018-10-06T14:23:17.668Z,0.00
2018-10-06T14:24:11.732Z,0.00
2018-10-06T14:25:16.446Z,0.00
2018-10-06T14:26:15.765Z,0.00
2018-10-06T14:27:14.613Z,0.00
2018-10-06T14:28:19.117Z,0.00
2018-10-06T14:29:19.529Z,0.00
2018-10-06T14:30:16.365Z,0.00
2018-10-06T14:31:16.885Z,0.00
2018-10-06T14:32:13.312Z,0.00
2018-10-06T14:33:16.889Z,0.00
2018-10-06T14:34:16.691Z,0.00
2018-10-06T14:36:19.268Z,0.00
2018-10-06T14:37:16.516Z,0.00
2018-10-06T14:38:08.432Z,0.00
2018-10-06T14:39:15.087Z,0.00
2018-10-06T14:40:13.166Z,0.00
2018-10-06T14:41:18.579Z,0.00
2018-10-06T14:42:15.002Z,0.00
2018-10-06T14:43:14.295Z,0.00
2018-10-06T14:44:18.783Z,0.00
2018-10-06T14:46:08.880Z,0.00
2018-10-06T14:47:16.506Z,0.00
2018-10-06T14:48:18.116Z,0.00
2018-10-06T14:49:11.416Z,0.00
2018-10-06T14:50:14.501Z,0.00
2018-10-06T14:51:15.360Z,0.00
2018-10-06T14:52:16.603Z,0.00
2018-10-06T14:53:15.519Z,0.00
2018-10-06T14:54:15.998Z,0.00
2018-10-06T14:55:08.468Z,0.00
2018-10-06T14:56:13.441Z,0.00
2018-10-06T14:57:13.853Z,0.00
2018-10-06T14:58:07.231Z,0.00
2018-10-06T14:59:15.097Z,0.00
2018-10-06T15:00:11.320Z,0.00
2018-10-06T15:01:09.681Z,0.00
2018-10-06T15:02:18.807Z,0.00
2018-10-06T15:03:16.762Z,0.00
2018-10-06T15:05:18.612Z,0.00
2018-10-06T15:06:12.688Z,0.00
2018-10-06T15:07:15.870Z,0.00
2018-10-06T15:08:16.376Z,0.00
2018-10-06T15:09:14.123Z,0.00
2018-10-06T15:10:08.667Z,0.00
2018-10-06T15:11:09.178Z,0.00
2018-10-06T15:13:12.821Z,0.00
2018-10-06T15:15:09.941Z,0.00
2018-10-06T15:16:15.507Z,0.00
2018-10-06T15:17:13.466Z,0.00